sensor_id;sensor_type;location;lat;lon;timestamp;P1;durP1;ratioP1;P2;durP2;ratioP2
79456;SDS011;69494;43.654;3.884;2023-05-15T00:01:19;6.85;;;1.77;;
79456;SDS011;69494;43.654;3.884;2023-05-15T00:03:46;3.65;;;1.75;;
79456;SDS011;69494;43.654;3.884;2023-05-15T00:06:11;4.55;;;1.80;;
79456;SDS011;69494;43.654;3.884;2023-05-15T00:08:37;3.92;;;1.70;;
79456;SDS011;69494;43.654;3.884;2023-05-15T00:11:02;5.35;;;1.80;;
79456;SDS011;69494;43.654;3.884;2023-05-15T00:13:28;4.07;;;1.70;;
79456;SDS011;69494;43.654;3.884;2023-05-15T00:15:54;4.03;;;1.67;;
79456;SDS011;69494;43.654;3.884;2023-05-15T00:18:19;3.70;;;1.55;;
79456;SDS011;69494;43.654;3.884;2023-05-15T00:20:44;7.45;;;2.03;;
79456;SDS011;69494;43.654;3.884;2023-05-15T00:23:10;5.57;;;1.75;;
79456;SDS011;69494;43.654;3.884;2023-05-15T00:25:35;4.00;;;1.67;;
79456;SDS011;69494;43.654;3.884;2023-05-15T00:28:01;3.88;;;1.50;;
79456;SDS011;69494;43.654;3.884;2023-05-15T00:30:26;4.38;;;1.70;;
79456;SDS011;69494;43.654;3.884;2023-05-15T00:32:52;4.30;;;1.80;;
79456;SDS011;69494;43.654;3.884;2023-05-15T00:35:17;4.20;;;1.70;;
79456;SDS011;69494;43.654;3.884;2023-05-15T00:37:43;4.03;;;2.00;;
79456;SDS011;69494;43.654;3.884;2023-05-15T00:40:08;3.95;;;1.73;;
79456;SDS011;69494;43.654;3.884;2023-05-15T00:42:36;3.90;;;1.75;;
79456;SDS011;69494;43.654;3.884;2023-05-15T00:45:02;5.65;;;1.60;;
79456;SDS011;69494;43.654;3.884;2023-05-15T00:47:32;4.60;;;1.92;;
79456;SDS011;69494;43.654;3.884;2023-05-15T00:49:59;4.38;;;1.85;;
79456;SDS011;69494;43.654;3.884;2023-05-15T00:52:26;8.63;;;1.92;;
79456;SDS011;69494;43.654;3.884;2023-05-15T00:54:53;3.60;;;1.80;;
79456;SDS011;69494;43.654;3.884;2023-05-15T00:57:18;4.20;;;1.67;;
79456;SDS011;69494;43.654;3.884;2023-05-15T00:59:45;3.45;;;1.65;;
79456;SDS011;69494;43.654;3.884;2023-05-15T01:02:13;4.07;;;1.77;;
79456;SDS011;69494;43.654;3.884;2023-05-15T01:04:42;3.88;;;1.85;;
79456;SDS011;69494;43.654;3.884;2023-05-15T01:07:07;6.13;;;1.83;;
79456;SDS011;69494;43.654;3.884;2023-05-15T01:09:33;4.45;;;2.05;;
79456;SDS011;69494;43.654;3.884;2023-05-15T01:12:01;3.70;;;1.75;;
79456;SDS011;69494;43.654;3.884;2023-05-15T01:14:28;7.53;;;2.10;;
79456;SDS011;69494;43.654;3.884;2023-05-15T01:16:54;4.57;;;2.08;;
79456;SDS011;69494;43.654;3.884;2023-05-15T01:19:19;3.78;;;1.70;;
79456;SDS011;69494;43.654;3.884;2023-05-15T01:32:19;4.55;;;2.05;;
79456;SDS011;69494;43.654;3.884;2023-05-15T01:34:58;5.35;;;2.15;;
79456;SDS011;69494;43.654;3.884;2023-05-15T01:37:33;5.05;;;2.38;;
79456;SDS011;69494;43.654;3.884;2023-05-15T01:40:05;5.43;;;2.50;;
79456;SDS011;69494;43.654;3.884;2023-05-15T01:42:33;4.70;;;1.98;;
79456;SDS011;69494;43.654;3.884;2023-05-15T01:45:01;3.63;;;1.73;;
79456;SDS011;69494;43.654;3.884;2023-05-15T01:47:32;4.43;;;2.15;;
79456;SDS011;69494;43.654;3.884;2023-05-15T01:50:02;4.05;;;2.22;;
79456;SDS011;69494;43.654;3.884;2023-05-15T01:54:56;4.57;;;2.05;;
79456;SDS011;69494;43.654;3.884;2023-05-15T01:57:22;5.47;;;2.47;;
79456;SDS011;69494;43.654;3.884;2023-05-15T02:07:07;7.00;;;2.83;;
79456;SDS011;69494;43.654;3.884;2023-05-15T02:09:33;5.55;;;2.60;;
79456;SDS011;69494;43.654;3.884;2023-05-15T02:11:59;5.00;;;2.47;;
79456;SDS011;69494;43.654;3.884;2023-05-15T02:14:27;4.90;;;2.50;;
79456;SDS011;69494;43.654;3.884;2023-05-15T02:16:53;5.93;;;2.60;;
79456;SDS011;69494;43.654;3.884;2023-05-15T02:19:19;6.22;;;2.88;;
79456;SDS011;69494;43.654;3.884;2023-05-15T02:21:45;5.03;;;2.50;;
79456;SDS011;69494;43.654;3.884;2023-05-15T02:24:10;5.13;;;2.80;;
79456;SDS011;69494;43.654;3.884;2023-05-15T02:33:04;5.15;;;2.60;;
79456;SDS011;69494;43.654;3.884;2023-05-15T02:35:44;5.40;;;2.70;;
79456;SDS011;69494;43.654;3.884;2023-05-15T02:38:18;4.97;;;2.65;;
79456;SDS011;69494;43.654;3.884;2023-05-15T02:40:47;7.45;;;2.67;;
79456;SDS011;69494;43.654;3.884;2023-05-15T02:43:14;8.02;;;2.33;;
79456;SDS011;69494;43.654;3.884;2023-05-15T02:45:42;5.18;;;2.78;;
79456;SDS011;69494;43.654;3.884;2023-05-15T02:48:10;5.15;;;2.63;;
79456;SDS011;69494;43.654;3.884;2023-05-15T02:50:36;5.45;;;2.50;;
79456;SDS011;69494;43.654;3.884;2023-05-15T02:53:03;4.78;;;2.70;;
79456;SDS011;69494;43.654;3.884;2023-05-15T02:57:55;5.88;;;3.10;;
79456;SDS011;69494;43.654;3.884;2023-05-15T03:00:20;5.57;;;2.63;;
79456;SDS011;69494;43.654;3.884;2023-05-15T03:02:46;5.28;;;2.38;;
79456;SDS011;69494;43.654;3.884;2023-05-15T03:05:11;4.90;;;2.78;;
79456;SDS011;69494;43.654;3.884;2023-05-15T03:07:37;5.63;;;2.47;;
79456;SDS011;69494;43.654;3.884;2023-05-15T03:10:03;6.03;;;2.83;;
79456;SDS011;69494;43.654;3.884;2023-05-15T03:12:29;5.47;;;2.78;;
79456;SDS011;69494;43.654;3.884;2023-05-15T03:14:54;5.75;;;2.92;;
79456;SDS011;69494;43.654;3.884;2023-05-15T03:17:19;5.40;;;2.67;;
79456;SDS011;69494;43.654;3.884;2023-05-15T03:19:45;6.60;;;2.70;;
79456;SDS011;69494;43.654;3.884;2023-05-15T03:22:10;6.07;;;3.30;;
79456;SDS011;69494;43.654;3.884;2023-05-15T03:24:36;4.95;;;2.75;;
79456;SDS011;69494;43.654;3.884;2023-05-15T03:27:02;6.32;;;2.83;;
79456;SDS011;69494;43.654;3.884;2023-05-15T03:29:29;6.95;;;3.10;;
79456;SDS011;69494;43.654;3.884;2023-05-15T03:31:54;5.57;;;2.53;;
79456;SDS011;69494;43.654;3.884;2023-05-15T03:34:20;7.15;;;2.97;;
79456;SDS011;69494;43.654;3.884;2023-05-15T03:36:45;5.22;;;2.70;;
79456;SDS011;69494;43.654;3.884;2023-05-15T03:39:10;5.93;;;2.60;;
79456;SDS011;69494;43.654;3.884;2023-05-15T03:41:36;6.45;;;2.70;;
79456;SDS011;69494;43.654;3.884;2023-05-15T03:44:01;7.85;;;3.15;;
79456;SDS011;69494;43.654;3.884;2023-05-15T03:46:26;5.50;;;3.00;;
79456;SDS011;69494;43.654;3.884;2023-05-15T03:48:52;6.22;;;2.88;;
79456;SDS011;69494;43.654;3.884;2023-05-15T03:51:18;5.93;;;2.75;;
79456;SDS011;69494;43.654;3.884;2023-05-15T03:53:44;6.88;;;3.42;;
79456;SDS011;69494;43.654;3.884;2023-05-15T03:56:09;6.03;;;3.30;;
79456;SDS011;69494;43.654;3.884;2023-05-15T03:58:35;5.20;;;2.80;;
79456;SDS011;69494;43.654;3.884;2023-05-15T04:01:00;5.93;;;3.20;;
79456;SDS011;69494;43.654;3.884;2023-05-15T04:03:26;5.55;;;2.75;;
79456;SDS011;69494;43.654;3.884;2023-05-15T04:05:51;6.63;;;3.03;;
79456;SDS011;69494;43.654;3.884;2023-05-15T04:08:17;4.90;;;2.88;;
79456;SDS011;69494;43.654;3.884;2023-05-15T04:10:42;8.00;;;3.40;;
79456;SDS011;69494;43.654;3.884;2023-05-15T04:13:07;5.22;;;2.72;;
79456;SDS011;69494;43.654;3.884;2023-05-15T04:15:33;6.93;;;3.35;;
79456;SDS011;69494;43.654;3.884;2023-05-15T04:17:59;4.70;;;2.60;;
79456;SDS011;69494;43.654;3.884;2023-05-15T04:20:24;5.95;;;2.88;;
79456;SDS011;69494;43.654;3.884;2023-05-15T04:22:50;5.65;;;2.67;;
79456;SDS011;69494;43.654;3.884;2023-05-15T04:25:16;6.40;;;3.00;;
79456;SDS011;69494;43.654;3.884;2023-05-15T04:27:43;5.38;;;2.80;;
79456;SDS011;69494;43.654;3.884;2023-05-15T04:30:09;5.80;;;3.08;;
79456;SDS011;69494;43.654;3.884;2023-05-15T04:32:35;5.07;;;2.72;;
79456;SDS011;69494;43.654;3.884;2023-05-15T04:35:02;6.05;;;3.35;;
79456;SDS011;69494;43.654;3.884;2023-05-15T04:37:36;5.75;;;3.00;;
79456;SDS011;69494;43.654;3.884;2023-05-15T04:40:02;5.72;;;2.88;;
79456;SDS011;69494;43.654;3.884;2023-05-15T04:42:28;5.25;;;2.67;;
79456;SDS011;69494;43.654;3.884;2023-05-15T04:44:54;8.82;;;3.08;;
79456;SDS011;69494;43.654;3.884;2023-05-15T04:47:19;5.60;;;3.25;;
79456;SDS011;69494;43.654;3.884;2023-05-15T04:49:45;4.90;;;2.53;;
79456;SDS011;69494;43.654;3.884;2023-05-15T04:52:12;5.55;;;2.72;;
79456;SDS011;69494;43.654;3.884;2023-05-15T04:54:37;5.68;;;2.80;;
79456;SDS011;69494;43.654;3.884;2023-05-15T04:57:03;6.68;;;3.00;;
79456;SDS011;69494;43.654;3.884;2023-05-15T04:59:28;5.25;;;2.38;;
79456;SDS011;69494;43.654;3.884;2023-05-15T05:01:54;6.75;;;3.00;;
79456;SDS011;69494;43.654;3.884;2023-05-15T05:04:20;6.55;;;2.92;;
79456;SDS011;69494;43.654;3.884;2023-05-15T05:06:45;5.72;;;2.80;;
79456;SDS011;69494;43.654;3.884;2023-05-15T05:09:11;6.35;;;2.72;;
79456;SDS011;69494;43.654;3.884;2023-05-15T05:11:40;7.97;;;2.75;;
79456;SDS011;69494;43.654;3.884;2023-05-15T05:14:14;5.85;;;2.80;;
79456;SDS011;69494;43.654;3.884;2023-05-15T05:16:41;5.03;;;2.53;;
79456;SDS011;69494;43.654;3.884;2023-05-15T05:19:08;5.03;;;2.55;;
79456;SDS011;69494;43.654;3.884;2023-05-15T05:21:34;5.63;;;3.05;;
79456;SDS011;69494;43.654;3.884;2023-05-15T05:24:00;5.18;;;2.47;;
79456;SDS011;69494;43.654;3.884;2023-05-15T05:26:25;5.32;;;2.72;;
79456;SDS011;69494;43.654;3.884;2023-05-15T05:28:51;7.43;;;3.22;;
79456;SDS011;69494;43.654;3.884;2023-05-15T05:31:17;5.03;;;2.42;;
79456;SDS011;69494;43.654;3.884;2023-05-15T05:33:42;6.00;;;2.72;;
79456;SDS011;69494;43.654;3.884;2023-05-15T05:36:08;5.97;;;2.75;;
79456;SDS011;69494;43.654;3.884;2023-05-15T05:38:34;8.40;;;3.25;;
79456;SDS011;69494;43.654;3.884;2023-05-15T05:41:00;5.20;;;2.60;;
79456;SDS011;69494;43.654;3.884;2023-05-15T05:43:27;5.22;;;2.45;;
79456;SDS011;69494;43.654;3.884;2023-05-15T05:45:52;5.18;;;2.92;;
79456;SDS011;69494;43.654;3.884;2023-05-15T05:48:18;7.88;;;3.30;;
79456;SDS011;69494;43.654;3.884;2023-05-15T05:50:44;6.28;;;2.95;;
79456;SDS011;69494;43.654;3.884;2023-05-15T05:53:09;4.90;;;2.75;;
79456;SDS011;69494;43.654;3.884;2023-05-15T05:55:34;5.35;;;2.70;;
79456;SDS011;69494;43.654;3.884;2023-05-15T05:58:00;6.40;;;3.00;;
79456;SDS011;69494;43.654;3.884;2023-05-15T06:00:26;7.53;;;3.15;;
79456;SDS011;69494;43.654;3.884;2023-05-15T06:02:58;6.55;;;2.97;;
79456;SDS011;69494;43.654;3.884;2023-05-15T06:05:27;5.28;;;2.92;;
79456;SDS011;69494;43.654;3.884;2023-05-15T06:07:52;6.05;;;2.80;;
79456;SDS011;69494;43.654;3.884;2023-05-15T06:10:19;5.45;;;2.75;;
79456;SDS011;69494;43.654;3.884;2023-05-15T06:12:44;6.43;;;3.05;;
79456;SDS011;69494;43.654;3.884;2023-05-15T06:15:10;7.90;;;3.20;;
79456;SDS011;69494;43.654;3.884;2023-05-15T06:17:36;7.38;;;3.22;;
79456;SDS011;69494;43.654;3.884;2023-05-15T06:20:02;6.18;;;2.53;;
79456;SDS011;69494;43.654;3.884;2023-05-15T06:22:35;7.03;;;3.33;;
79456;SDS011;69494;43.654;3.884;2023-05-15T06:25:01;5.82;;;2.97;;
79456;SDS011;69494;43.654;3.884;2023-05-15T06:27:28;5.32;;;2.92;;
79456;SDS011;69494;43.654;3.884;2023-05-15T06:29:53;5.03;;;2.35;;
79456;SDS011;69494;43.654;3.884;2023-05-15T06:32:19;5.50;;;3.25;;
79456;SDS011;69494;43.654;3.884;2023-05-15T06:34:44;9.15;;;2.75;;
79456;SDS011;69494;43.654;3.884;2023-05-15T06:37:10;6.57;;;3.05;;
79456;SDS011;69494;43.654;3.884;2023-05-15T06:39:36;4.57;;;2.72;;
79456;SDS011;69494;43.654;3.884;2023-05-15T06:42:02;7.80;;;3.30;;
79456;SDS011;69494;43.654;3.884;2023-05-15T06:44:28;4.53;;;2.28;;
79456;SDS011;69494;43.654;3.884;2023-05-15T06:46:55;6.03;;;2.95;;
79456;SDS011;69494;43.654;3.884;2023-05-15T06:49:20;6.32;;;3.22;;
79456;SDS011;69494;43.654;3.884;2023-05-15T06:51:46;6.38;;;2.80;;
79456;SDS011;69494;43.654;3.884;2023-05-15T06:54:11;8.57;;;3.08;;
79456;SDS011;69494;43.654;3.884;2023-05-15T06:56:37;6.88;;;3.17;;
79456;SDS011;69494;43.654;3.884;2023-05-15T06:59:02;5.97;;;3.20;;
79456;SDS011;69494;43.654;3.884;2023-05-15T07:01:29;5.90;;;3.17;;
79456;SDS011;69494;43.654;3.884;2023-05-15T07:03:55;5.18;;;2.75;;
79456;SDS011;69494;43.654;3.884;2023-05-15T07:06:20;5.70;;;3.08;;
79456;SDS011;69494;43.654;3.884;2023-05-15T07:08:46;7.55;;;3.20;;
79456;SDS011;69494;43.654;3.884;2023-05-15T07:11:11;5.75;;;2.90;;
79456;SDS011;69494;43.654;3.884;2023-05-15T07:13:36;4.25;;;2.53;;
79456;SDS011;69494;43.654;3.884;2023-05-15T07:16:02;7.32;;;2.92;;
79456;SDS011;69494;43.654;3.884;2023-05-15T07:18:28;6.32;;;3.08;;
79456;SDS011;69494;43.654;3.884;2023-05-15T07:20:54;6.07;;;3.38;;
79456;SDS011;69494;43.654;3.884;2023-05-15T07:23:19;6.47;;;2.85;;
79456;SDS011;69494;43.654;3.884;2023-05-15T07:25:45;10.43;;;3.00;;
79456;SDS011;69494;43.654;3.884;2023-05-15T07:28:10;5.10;;;2.80;;
79456;SDS011;69494;43.654;3.884;2023-05-15T07:30:36;5.00;;;2.40;;
79456;SDS011;69494;43.654;3.884;2023-05-15T07:33:01;7.50;;;3.45;;
79456;SDS011;69494;43.654;3.884;2023-05-15T07:35:27;5.07;;;2.83;;
79456;SDS011;69494;43.654;3.884;2023-05-15T07:37:52;6.60;;;3.13;;
79456;SDS011;69494;43.654;3.884;2023-05-15T07:40:18;6.63;;;3.22;;
79456;SDS011;69494;43.654;3.884;2023-05-15T07:42:43;6.80;;;3.35;;
79456;SDS011;69494;43.654;3.884;2023-05-15T07:45:09;6.28;;;2.67;;
79456;SDS011;69494;43.654;3.884;2023-05-15T07:47:35;6.13;;;3.10;;
79456;SDS011;69494;43.654;3.884;2023-05-15T07:50:00;5.45;;;2.80;;
79456;SDS011;69494;43.654;3.884;2023-05-15T07:52:26;8.35;;;3.45;;
79456;SDS011;69494;43.654;3.884;2023-05-15T07:54:52;5.88;;;3.30;;
79456;SDS011;69494;43.654;3.884;2023-05-15T07:57:17;8.82;;;3.03;;
79456;SDS011;69494;43.654;3.884;2023-05-15T07:59:43;5.63;;;3.15;;
79456;SDS011;69494;43.654;3.884;2023-05-15T08:02:08;7.22;;;3.10;;
79456;SDS011;69494;43.654;3.884;2023-05-15T08:04:33;7.60;;;3.15;;
79456;SDS011;69494;43.654;3.884;2023-05-15T08:06:59;7.35;;;3.40;;
79456;SDS011;69494;43.654;3.884;2023-05-15T08:09:24;8.00;;;3.45;;
79456;SDS011;69494;43.654;3.884;2023-05-15T08:11:50;5.72;;;2.83;;
79456;SDS011;69494;43.654;3.884;2023-05-15T08:14:15;5.13;;;2.80;;
79456;SDS011;69494;43.654;3.884;2023-05-15T08:16:41;13.23;;;3.20;;
79456;SDS011;69494;43.654;3.884;2023-05-15T08:19:06;5.63;;;2.80;;
79456;SDS011;69494;43.654;3.884;2023-05-15T08:21:32;5.22;;;2.65;;
79456;SDS011;69494;43.654;3.884;2023-05-15T08:23:58;5.80;;;2.97;;
79456;SDS011;69494;43.654;3.884;2023-05-15T08:26:24;6.72;;;3.28;;
79456;SDS011;69494;43.654;3.884;2023-05-15T08:28:49;7.00;;;3.58;;
79456;SDS011;69494;43.654;3.884;2023-05-15T08:31:15;6.68;;;3.10;;
79456;SDS011;69494;43.654;3.884;2023-05-15T08:33:40;4.82;;;2.72;;
79456;SDS011;69494;43.654;3.884;2023-05-15T08:36:06;8.45;;;3.03;;
79456;SDS011;69494;43.654;3.884;2023-05-15T08:38:32;7.68;;;3.30;;
79456;SDS011;69494;43.654;3.884;2023-05-15T08:40:58;5.38;;;2.72;;
79456;SDS011;69494;43.654;3.884;2023-05-15T08:43:30;6.82;;;3.38;;
79456;SDS011;69494;43.654;3.884;2023-05-15T08:45:59;8.52;;;3.25;;
79456;SDS011;69494;43.654;3.884;2023-05-15T08:48:26;6.15;;;2.95;;
79456;SDS011;69494;43.654;3.884;2023-05-15T08:50:54;9.50;;;3.45;;
79456;SDS011;69494;43.654;3.884;2023-05-15T08:53:22;5.80;;;3.13;;
79456;SDS011;69494;43.654;3.884;2023-05-15T08:55:47;5.60;;;2.65;;
79456;SDS011;69494;43.654;3.884;2023-05-15T08:58:14;5.53;;;2.67;;
79456;SDS011;69494;43.654;3.884;2023-05-15T09:05:37;5.65;;;2.30;;
79456;SDS011;69494;43.654;3.884;2023-05-15T09:08:03;5.63;;;2.78;;
79456;SDS011;69494;43.654;3.884;2023-05-15T09:10:32;5.68;;;3.00;;
79456;SDS011;69494;43.654;3.884;2023-05-15T09:13:00;5.63;;;2.42;;
79456;SDS011;69494;43.654;3.884;2023-05-15T09:15:26;5.78;;;2.30;;
79456;SDS011;69494;43.654;3.884;2023-05-15T09:17:52;5.78;;;2.28;;
79456;SDS011;69494;43.654;3.884;2023-05-15T09:20:35;6.90;;;2.92;;
79456;SDS011;69494;43.654;3.884;2023-05-15T09:23:02;6.45;;;3.25;;
79456;SDS011;69494;43.654;3.884;2023-05-15T09:28:05;6.72;;;2.38;;
79456;SDS011;69494;43.654;3.884;2023-05-15T09:30:37;5.47;;;2.67;;
79456;SDS011;69494;43.654;3.884;2023-05-15T09:33:05;5.40;;;2.70;;
79456;SDS011;69494;43.654;3.884;2023-05-15T09:35:31;4.45;;;2.25;;
79456;SDS011;69494;43.654;3.884;2023-05-15T09:37:59;6.15;;;2.67;;
79456;SDS011;69494;43.654;3.884;2023-05-15T09:40:29;5.50;;;2.78;;
79456;SDS011;69494;43.654;3.884;2023-05-15T09:42:55;3.53;;;1.80;;
79456;SDS011;69494;43.654;3.884;2023-05-15T09:45:21;5.93;;;2.33;;
79456;SDS011;69494;43.654;3.884;2023-05-15T09:47:49;5.63;;;2.70;;
79456;SDS011;69494;43.654;3.884;2023-05-15T09:50:19;5.20;;;2.97;;
79456;SDS011;69494;43.654;3.884;2023-05-15T09:52:49;4.32;;;2.00;;
79456;SDS011;69494;43.654;3.884;2023-05-15T09:55:16;6.57;;;2.75;;
79456;SDS011;69494;43.654;3.884;2023-05-15T09:57:44;4.80;;;2.90;;
79456;SDS011;69494;43.654;3.884;2023-05-15T10:00:28;4.93;;;2.00;;
79456;SDS011;69494;43.654;3.884;2023-05-15T10:02:56;8.52;;;2.92;;
79456;SDS011;69494;43.654;3.884;2023-05-15T10:05:22;6.30;;;2.20;;
79456;SDS011;69494;43.654;3.884;2023-05-15T10:07:53;5.72;;;2.42;;
79456;SDS011;69494;43.654;3.884;2023-05-15T10:10:20;6.18;;;2.53;;
79456;SDS011;69494;43.654;3.884;2023-05-15T10:12:46;4.00;;;2.13;;
79456;SDS011;69494;43.654;3.884;2023-05-15T10:15:12;4.65;;;2.05;;
79456;SDS011;69494;43.654;3.884;2023-05-15T10:17:38;8.82;;;2.15;;
79456;SDS011;69494;43.654;3.884;2023-05-15T10:20:05;5.47;;;2.10;;
79456;SDS011;69494;43.654;3.884;2023-05-15T10:22:32;5.25;;;2.33;;
79456;SDS011;69494;43.654;3.884;2023-05-15T10:25:08;7.60;;;2.22;;
79456;SDS011;69494;43.654;3.884;2023-05-15T10:27:40;4.90;;;2.22;;
79456;SDS011;69494;43.654;3.884;2023-05-15T10:32:33;4.88;;;2.30;;
79456;SDS011;69494;43.654;3.884;2023-05-15T10:35:00;5.47;;;2.30;;
79456;SDS011;69494;43.654;3.884;2023-05-15T10:37:27;3.83;;;1.90;;
79456;SDS011;69494;43.654;3.884;2023-05-15T10:39:54;4.93;;;2.10;;
79456;SDS011;69494;43.654;3.884;2023-05-15T10:42:22;4.65;;;2.05;;
79456;SDS011;69494;43.654;3.884;2023-05-15T10:44:50;9.00;;;2.60;;
79456;SDS011;69494;43.654;3.884;2023-05-15T10:47:18;4.80;;;2.15;;
79456;SDS011;69494;43.654;3.884;2023-05-15T10:49:44;5.15;;;2.30;;
79456;SDS011;69494;43.654;3.884;2023-05-15T10:52:09;5.35;;;2.38;;
79456;SDS011;69494;43.654;3.884;2023-05-15T10:54:35;5.90;;;2.30;;
79456;SDS011;69494;43.654;3.884;2023-05-15T10:57:01;4.57;;;2.13;;
79456;SDS011;69494;43.654;3.884;2023-05-15T10:59:30;6.32;;;2.38;;
79456;SDS011;69494;43.654;3.884;2023-05-15T11:01:57;5.00;;;2.58;;
79456;SDS011;69494;43.654;3.884;2023-05-15T11:04:46;5.18;;;2.20;;
79456;SDS011;69494;43.654;3.884;2023-05-15T11:07:15;4.60;;;2.30;;
79456;SDS011;69494;43.654;3.884;2023-05-15T11:09:42;5.13;;;1.88;;
79456;SDS011;69494;43.654;3.884;2023-05-15T11:12:10;7.28;;;2.35;;
79456;SDS011;69494;43.654;3.884;2023-05-15T11:14:38;7.38;;;2.25;;
79456;SDS011;69494;43.654;3.884;2023-05-15T11:17:08;5.32;;;2.35;;
79456;SDS011;69494;43.654;3.884;2023-05-15T11:24:52;4.90;;;2.50;;
79456;SDS011;69494;43.654;3.884;2023-05-15T11:35:12;7.05;;;1.75;;
79456;SDS011;69494;43.654;3.884;2023-05-15T11:40:28;4.93;;;2.20;;
79456;SDS011;69494;43.654;3.884;2023-05-15T11:45:41;5.82;;;2.40;;
79456;SDS011;69494;43.654;3.884;2023-05-15T11:48:11;4.78;;;2.20;;
79456;SDS011;69494;43.654;3.884;2023-05-15T11:50:37;5.13;;;2.28;;
79456;SDS011;69494;43.654;3.884;2023-05-15T11:53:04;6.80;;;2.15;;
79456;SDS011;69494;43.654;3.884;2023-05-15T11:55:31;5.40;;;2.15;;
79456;SDS011;69494;43.654;3.884;2023-05-15T11:57:58;6.35;;;2.50;;
79456;SDS011;69494;43.654;3.884;2023-05-15T12:00:24;4.47;;;2.10;;
79456;SDS011;69494;43.654;3.884;2023-05-15T12:02:49;4.72;;;2.30;;
79456;SDS011;69494;43.654;3.884;2023-05-15T12:05:15;6.45;;;2.53;;
79456;SDS011;69494;43.654;3.884;2023-05-15T12:07:41;5.45;;;2.67;;
79456;SDS011;69494;43.654;3.884;2023-05-15T12:10:10;4.28;;;2.00;;
79456;SDS011;69494;43.654;3.884;2023-05-15T12:12:46;4.45;;;1.92;;
79456;SDS011;69494;43.654;3.884;2023-05-15T12:15:13;5.47;;;2.42;;
79456;SDS011;69494;43.654;3.884;2023-05-15T12:17:41;4.78;;;2.00;;
79456;SDS011;69494;43.654;3.884;2023-05-15T12:20:11;4.63;;;1.90;;
79456;SDS011;69494;43.654;3.884;2023-05-15T12:22:40;5.13;;;2.10;;
79456;SDS011;69494;43.654;3.884;2023-05-15T12:25:09;4.85;;;2.15;;
79456;SDS011;69494;43.654;3.884;2023-05-15T12:27:36;5.22;;;2.20;;
79456;SDS011;69494;43.654;3.884;2023-05-15T12:30:03;4.53;;;1.77;;
79456;SDS011;69494;43.654;3.884;2023-05-15T12:32:31;5.82;;;2.30;;
79456;SDS011;69494;43.654;3.884;2023-05-15T12:34:59;5.45;;;2.60;;
79456;SDS011;69494;43.654;3.884;2023-05-15T12:37:25;4.55;;;2.03;;
79456;SDS011;69494;43.654;3.884;2023-05-15T12:39:54;5.65;;;1.88;;
79456;SDS011;69494;43.654;3.884;2023-05-15T12:42:23;4.65;;;2.13;;
79456;SDS011;69494;43.654;3.884;2023-05-15T12:44:53;4.80;;;2.20;;
79456;SDS011;69494;43.654;3.884;2023-05-15T12:47:22;4.13;;;1.67;;
79456;SDS011;69494;43.654;3.884;2023-05-15T12:49:49;4.57;;;1.90;;
79456;SDS011;69494;43.654;3.884;2023-05-15T12:52:14;5.25;;;2.20;;
79456;SDS011;69494;43.654;3.884;2023-05-15T12:54:41;5.60;;;2.50;;
79456;SDS011;69494;43.654;3.884;2023-05-15T12:57:08;6.53;;;2.60;;
79456;SDS011;69494;43.654;3.884;2023-05-15T12:59:34;5.65;;;2.30;;
79456;SDS011;69494;43.654;3.884;2023-05-15T13:02:00;6.38;;;2.40;;
79456;SDS011;69494;43.654;3.884;2023-05-15T13:04:25;3.92;;;1.85;;
79456;SDS011;69494;43.654;3.884;2023-05-15T13:06:51;3.78;;;1.77;;
79456;SDS011;69494;43.654;3.884;2023-05-15T13:09:20;4.63;;;2.15;;
79456;SDS011;69494;43.654;3.884;2023-05-15T13:11:46;5.13;;;2.30;;
79456;SDS011;69494;43.654;3.884;2023-05-15T13:14:12;7.18;;;2.63;;
79456;SDS011;69494;43.654;3.884;2023-05-15T13:16:41;3.55;;;1.63;;
79456;SDS011;69494;43.654;3.884;2023-05-15T13:19:08;4.18;;;2.10;;
79456;SDS011;69494;43.654;3.884;2023-05-15T13:21:34;5.32;;;2.80;;
79456;SDS011;69494;43.654;3.884;2023-05-15T13:24:00;4.07;;;1.90;;
79456;SDS011;69494;43.654;3.884;2023-05-15T13:26:25;4.63;;;2.13;;
79456;SDS011;69494;43.654;3.884;2023-05-15T13:28:51;7.18;;;2.38;;
79456;SDS011;69494;43.654;3.884;2023-05-15T13:31:16;6.10;;;2.40;;
79456;SDS011;69494;43.654;3.884;2023-05-15T13:33:42;10.40;;;2.55;;
79456;SDS011;69494;43.654;3.884;2023-05-15T13:36:07;4.20;;;1.80;;
79456;SDS011;69494;43.654;3.884;2023-05-15T13:38:33;3.55;;;1.75;;
79456;SDS011;69494;43.654;3.884;2023-05-15T13:40:58;9.38;;;2.20;;
79456;SDS011;69494;43.654;3.884;2023-05-15T13:43:24;6.40;;;2.38;;
79456;SDS011;69494;43.654;3.884;2023-05-15T13:45:49;4.97;;;2.50;;
79456;SDS011;69494;43.654;3.884;2023-05-15T13:48:15;5.53;;;2.28;;
79456;SDS011;69494;43.654;3.884;2023-05-15T13:50:40;4.35;;;2.28;;
79456;SDS011;69494;43.654;3.884;2023-05-15T13:53:07;4.90;;;2.13;;
79456;SDS011;69494;43.654;3.884;2023-05-15T13:55:33;6.38;;;2.58;;
79456;SDS011;69494;43.654;3.884;2023-05-15T13:57:58;5.07;;;2.40;;
79456;SDS011;69494;43.654;3.884;2023-05-15T14:00:25;4.75;;;2.45;;
79456;SDS011;69494;43.654;3.884;2023-05-15T14:02:50;6.05;;;2.50;;
79456;SDS011;69494;43.654;3.884;2023-05-15T14:05:16;4.22;;;2.00;;
79456;SDS011;69494;43.654;3.884;2023-05-15T14:07:42;3.75;;;1.73;;
79456;SDS011;69494;43.654;3.884;2023-05-15T14:10:08;7.05;;;2.20;;
79456;SDS011;69494;43.654;3.884;2023-05-15T14:12:34;5.68;;;2.25;;
79456;SDS011;69494;43.654;3.884;2023-05-15T14:15:00;4.60;;;2.28;;
79456;SDS011;69494;43.654;3.884;2023-05-15T14:17:26;5.15;;;2.20;;
79456;SDS011;69494;43.654;3.884;2023-05-15T14:19:52;4.70;;;2.20;;
79456;SDS011;69494;43.654;3.884;2023-05-15T14:22:18;5.95;;;2.58;;
79456;SDS011;69494;43.654;3.884;2023-05-15T14:24:43;5.47;;;1.95;;
79456;SDS011;69494;43.654;3.884;2023-05-15T14:27:08;4.28;;;1.95;;
79456;SDS011;69494;43.654;3.884;2023-05-15T14:29:34;5.10;;;2.10;;
79456;SDS011;69494;43.654;3.884;2023-05-15T14:31:59;4.65;;;2.25;;
79456;SDS011;69494;43.654;3.884;2023-05-15T14:34:25;5.18;;;2.05;;
79456;SDS011;69494;43.654;3.884;2023-05-15T14:36:51;5.68;;;2.17;;
79456;SDS011;69494;43.654;3.884;2023-05-15T14:39:16;4.53;;;2.58;;
79456;SDS011;69494;43.654;3.884;2023-05-15T14:41:42;4.97;;;2.33;;
79456;SDS011;69494;43.654;3.884;2023-05-15T14:44:08;4.28;;;1.92;;
79456;SDS011;69494;43.654;3.884;2023-05-15T14:46:34;9.68;;;2.47;;
79456;SDS011;69494;43.654;3.884;2023-05-15T14:49:01;4.68;;;2.38;;
79456;SDS011;69494;43.654;3.884;2023-05-15T14:51:27;5.93;;;2.58;;
79456;SDS011;69494;43.654;3.884;2023-05-15T14:53:53;5.30;;;1.83;;
79456;SDS011;69494;43.654;3.884;2023-05-15T14:56:18;4.88;;;2.30;;
79456;SDS011;69494;43.654;3.884;2023-05-15T14:58:43;6.43;;;2.75;;
79456;SDS011;69494;43.654;3.884;2023-05-15T15:01:10;5.45;;;2.40;;
79456;SDS011;69494;43.654;3.884;2023-05-15T15:03:35;5.07;;;2.38;;
79456;SDS011;69494;43.654;3.884;2023-05-15T15:06:01;4.60;;;1.90;;
79456;SDS011;69494;43.654;3.884;2023-05-15T15:08:26;4.60;;;2.33;;
79456;SDS011;69494;43.654;3.884;2023-05-15T15:10:52;5.50;;;2.15;;
79456;SDS011;69494;43.654;3.884;2023-05-15T15:13:17;5.10;;;2.38;;
79456;SDS011;69494;43.654;3.884;2023-05-15T15:15:42;4.45;;;2.17;;
79456;SDS011;69494;43.654;3.884;2023-05-15T15:18:08;5.78;;;2.70;;
79456;SDS011;69494;43.654;3.884;2023-05-15T15:20:33;5.10;;;2.30;;
79456;SDS011;69494;43.654;3.884;2023-05-15T15:22:59;5.47;;;2.40;;
79456;SDS011;69494;43.654;3.884;2023-05-15T15:25:24;7.53;;;2.30;;
79456;SDS011;69494;43.654;3.884;2023-05-15T15:27:50;6.97;;;2.10;;
79456;SDS011;69494;43.654;3.884;2023-05-15T15:30:16;5.65;;;2.28;;
79456;SDS011;69494;43.654;3.884;2023-05-15T15:32:42;6.97;;;2.65;;
79456;SDS011;69494;43.654;3.884;2023-05-15T15:35:08;4.47;;;2.28;;
79456;SDS011;69494;43.654;3.884;2023-05-15T15:37:34;5.25;;;2.47;;
79456;SDS011;69494;43.654;3.884;2023-05-15T15:40:01;4.05;;;1.90;;
79456;SDS011;69494;43.654;3.884;2023-05-15T15:42:29;5.10;;;2.35;;